sensor_id;sensor_type;location;lat;lon;timestamp;P1;durP1;ratioP1;P2;durP2;ratioP2
33098;SDS011;19465;49.016;11.414;2024-02-21T00:00:35;8.18;;;3.03;;
33098;SDS011;19465;49.016;11.414;2024-02-21T00:03:03;11.88;;;3.40;;
33098;SDS011;19465;49.016;11.414;2024-02-21T00:05:29;12.32;;;3.83;;
33098;SDS011;19465;49.016;11.414;2024-02-21T00:07:55;10.48;;;3.60;;
33098;SDS011;19465;49.016;11.414;2024-02-21T00:10:20;14.95;;;4.03;;
33098;SDS011;19465;49.016;11.414;2024-02-21T00:12:46;16.33;;;4.57;;
33098;SDS011;19465;49.016;11.414;2024-02-21T00:15:12;13.45;;;3.33;;
33098;SDS011;19465;49.016;11.414;2024-02-21T00:17:37;11.93;;;3.58;;
33098;SDS011;19465;49.016;11.414;2024-02-21T00:20:03;17.42;;;4.18;;
33098;SDS011;19465;49.016;11.414;2024-02-21T00:22:29;12.10;;;3.65;;
33098;SDS011;19465;49.016;11.414;2024-02-21T00:24:56;11.13;;;4.03;;
33098;SDS011;19465;49.016;11.414;2024-02-21T00:27:23;8.57;;;3.40;;
33098;SDS011;19465;49.016;11.414;2024-02-21T00:29:48;10.77;;;3.78;;
33098;SDS011;19465;49.016;11.414;2024-02-21T00:32:14;14.45;;;3.65;;
33098;SDS011;19465;49.016;11.414;2024-02-21T00:34:39;14.77;;;3.95;;
33098;SDS011;19465;49.016;11.414;2024-02-21T00:37:05;11.57;;;3.97;;
33098;SDS011;19465;49.016;11.414;2024-02-21T00:39:31;8.50;;;3.80;;
33098;SDS011;19465;49.016;11.414;2024-02-21T00:41:56;12.15;;;3.50;;
33098;SDS011;19465;49.016;11.414;2024-02-21T00:44:21;12.30;;;4.15;;
33098;SDS011;19465;49.016;11.414;2024-02-21T00:46:47;9.20;;;3.63;;
33098;SDS011;19465;49.016;11.414;2024-02-21T00:49:13;10.10;;;3.42;;
33098;SDS011;19465;49.016;11.414;2024-02-21T00:51:38;15.05;;;4.28;;
33098;SDS011;19465;49.016;11.414;2024-02-21T00:54:04;10.40;;;3.47;;
33098;SDS011;19465;49.016;11.414;2024-02-21T00:56:29;10.05;;;3.80;;
33098;SDS011;19465;49.016;11.414;2024-02-21T00:58:55;13.45;;;4.47;;
33098;SDS011;19465;49.016;11.414;2024-02-21T01:01:22;15.18;;;4.03;;
33098;SDS011;19465;49.016;11.414;2024-02-21T01:03:49;14.13;;;4.03;;
33098;SDS011;19465;49.016;11.414;2024-02-21T01:06:14;15.95;;;3.97;;
33098;SDS011;19465;49.016;11.414;2024-02-21T01:08:40;11.55;;;3.53;;
33098;SDS011;19465;49.016;11.414;2024-02-21T01:11:05;12.77;;;3.20;;
33098;SDS011;19465;49.016;11.414;2024-02-21T01:13:31;13.77;;;3.95;;
33098;SDS011;19465;49.016;11.414;2024-02-21T01:15:56;16.10;;;4.95;;
33098;SDS011;19465;49.016;11.414;2024-02-21T01:18:22;17.40;;;5.20;;
33098;SDS011;19465;49.016;11.414;2024-02-21T01:20:47;13.40;;;3.72;;
33098;SDS011;19465;49.016;11.414;2024-02-21T01:23:13;18.55;;;4.47;;
33098;SDS011;19465;49.016;11.414;2024-02-21T01:25:39;14.40;;;4.32;;
33098;SDS011;19465;49.016;11.414;2024-02-21T01:28:04;13.30;;;4.43;;
33098;SDS011;19465;49.016;11.414;2024-02-21T01:30:30;16.23;;;3.75;;
33098;SDS011;19465;49.016;11.414;2024-02-21T01:32:55;13.18;;;3.83;;
33098;SDS011;19465;49.016;11.414;2024-02-21T01:35:21;13.73;;;4.47;;
33098;SDS011;19465;49.016;11.414;2024-02-21T01:37:46;11.95;;;4.18;;
33098;SDS011;19465;49.016;11.414;2024-02-21T01:40:12;12.55;;;3.78;;
33098;SDS011;19465;49.016;11.414;2024-02-21T01:42:38;11.95;;;4.50;;
33098;SDS011;19465;49.016;11.414;2024-02-21T01:45:05;14.65;;;4.57;;
33098;SDS011;19465;49.016;11.414;2024-02-21T01:47:31;14.27;;;4.05;;
33098;SDS011;19465;49.016;11.414;2024-02-21T01:49:56;11.50;;;3.83;;
33098;SDS011;19465;49.016;11.414;2024-02-21T01:52:22;10.90;;;3.72;;
33098;SDS011;19465;49.016;11.414;2024-02-21T01:54:48;11.80;;;4.50;;
33098;SDS011;19465;49.016;11.414;2024-02-21T01:57:13;9.35;;;3.40;;
33098;SDS011;19465;49.016;11.414;2024-02-21T01:59:39;11.35;;;3.85;;
33098;SDS011;19465;49.016;11.414;2024-02-21T02:02:05;11.10;;;3.67;;
33098;SDS011;19465;49.016;11.414;2024-02-21T02:04:31;10.50;;;3.88;;
33098;SDS011;19465;49.016;11.414;2024-02-21T02:06:57;11.10;;;4.80;;
33098;SDS011;19465;49.016;11.414;2024-02-21T02:09:27;8.55;;;3.80;;
33098;SDS011;19465;49.016;11.414;2024-02-21T02:11:53;10.23;;;4.43;;
33098;SDS011;19465;49.016;11.414;2024-02-21T02:14:18;11.38;;;4.18;;
33098;SDS011;19465;49.016;11.414;2024-02-21T02:16:47;9.00;;;3.83;;
33098;SDS011;19465;49.016;11.414;2024-02-21T02:19:13;15.95;;;4.25;;
33098;SDS011;19465;49.016;11.414;2024-02-21T02:21:39;11.27;;;3.78;;
33098;SDS011;19465;49.016;11.414;2024-02-21T02:24:07;11.57;;;4.00;;
33098;SDS011;19465;49.016;11.414;2024-02-21T02:26:33;16.90;;;4.32;;
33098;SDS011;19465;49.016;11.414;2024-02-21T02:28:58;11.00;;;4.20;;
33098;SDS011;19465;49.016;11.414;2024-02-21T02:31:26;13.85;;;3.85;;
33098;SDS011;19465;49.016;11.414;2024-02-21T02:33:52;14.52;;;3.95;;
33098;SDS011;19465;49.016;11.414;2024-02-21T02:36:18;9.93;;;4.05;;
33098;SDS011;19465;49.016;11.414;2024-02-21T02:38:43;10.43;;;3.72;;
33098;SDS011;19465;49.016;11.414;2024-02-21T02:41:09;11.75;;;4.97;;
33098;SDS011;19465;49.016;11.414;2024-02-21T02:43:34;16.73;;;4.47;;
33098;SDS011;19465;49.016;11.414;2024-02-21T02:46:01;18.90;;;4.47;;
33098;SDS011;19465;49.016;11.414;2024-02-21T02:48:27;11.98;;;4.22;;
33098;SDS011;19465;49.016;11.414;2024-02-21T02:50:53;10.75;;;4.18;;
33098;SDS011;19465;49.016;11.414;2024-02-21T02:53:18;14.30;;;4.38;;
33098;SDS011;19465;49.016;11.414;2024-02-21T02:55:44;14.48;;;4.90;;
33098;SDS011;19465;49.016;11.414;2024-02-21T02:58:09;17.80;;;5.43;;
33098;SDS011;19465;49.016;11.414;2024-02-21T03:00:35;9.77;;;5.20;;
33098;SDS011;19465;49.016;11.414;2024-02-21T03:03:01;11.15;;;5.45;;
33098;SDS011;19465;49.016;11.414;2024-02-21T03:05:29;10.75;;;5.20;;
33098;SDS011;19465;49.016;11.414;2024-02-21T03:07:54;13.07;;;5.50;;
33098;SDS011;19465;49.016;11.414;2024-02-21T03:10:20;14.32;;;5.63;;
33098;SDS011;19465;49.016;11.414;2024-02-21T03:12:46;17.35;;;9.68;;
33098;SDS011;19465;49.016;11.414;2024-02-21T03:15:12;16.92;;;7.20;;
33098;SDS011;19465;49.016;11.414;2024-02-21T03:17:38;14.52;;;6.13;;
33098;SDS011;19465;49.016;11.414;2024-02-21T03:20:04;16.10;;;5.97;;
33098;SDS011;19465;49.016;11.414;2024-02-21T03:22:31;11.50;;;5.65;;
33098;SDS011;19465;49.016;11.414;2024-02-21T03:24:57;17.48;;;5.82;;
33098;SDS011;19465;49.016;11.414;2024-02-21T03:27:23;15.73;;;5.53;;
33098;SDS011;19465;49.016;11.414;2024-02-21T03:29:48;14.70;;;5.45;;
33098;SDS011;19465;49.016;11.414;2024-02-21T03:32:14;13.90;;;5.88;;
33098;SDS011;19465;49.016;11.414;2024-02-21T03:34:39;12.88;;;5.28;;
33098;SDS011;19465;49.016;11.414;2024-02-21T03:37:05;14.68;;;6.38;;
33098;SDS011;19465;49.016;11.414;2024-02-21T03:39:31;10.90;;;5.45;;
33098;SDS011;19465;49.016;11.414;2024-02-21T03:42:00;14.68;;;6.30;;
33098;SDS011;19465;49.016;11.414;2024-02-21T03:44:29;12.02;;;5.57;;
33098;SDS011;19465;49.016;11.414;2024-02-21T03:46:58;14.52;;;5.78;;
33098;SDS011;19465;49.016;11.414;2024-02-21T03:49:25;13.68;;;5.72;;
33098;SDS011;19465;49.016;11.414;2024-02-21T03:51:51;13.07;;;5.90;;
33098;SDS011;19465;49.016;11.414;2024-02-21T03:54:16;20.40;;;6.13;;
33098;SDS011;19465;49.016;11.414;2024-02-21T03:56:42;13.73;;;5.60;;
33098;SDS011;19465;49.016;11.414;2024-02-21T03:59:07;17.17;;;5.75;;
33098;SDS011;19465;49.016;11.414;2024-02-21T04:01:36;15.82;;;5.25;;
33098;SDS011;19465;49.016;11.414;2024-02-21T04:04:02;14.52;;;5.82;;
33098;SDS011;19465;49.016;11.414;2024-02-21T04:06:27;15.10;;;5.53;;
33098;SDS011;19465;49.016;11.414;2024-02-21T04:08:53;14.32;;;5.10;;
33098;SDS011;19465;49.016;11.414;2024-02-21T04:11:19;13.45;;;5.28;;
33098;SDS011;19465;49.016;11.414;2024-02-21T04:13:44;13.20;;;5.40;;
33098;SDS011;19465;49.016;11.414;2024-02-21T04:16:13;11.90;;;5.07;;
33098;SDS011;19465;49.016;11.414;2024-02-21T04:18:39;17.77;;;5.65;;
33098;SDS011;19465;49.016;11.414;2024-02-21T04:21:05;12.90;;;4.50;;
33098;SDS011;19465;49.016;11.414;2024-02-21T04:23:30;14.52;;;5.18;;
33098;SDS011;19465;49.016;11.414;2024-02-21T04:25:56;15.65;;;5.13;;
33098;SDS011;19465;49.016;11.414;2024-02-21T04:28:21;13.45;;;4.88;;
33098;SDS011;19465;49.016;11.414;2024-02-21T04:30:47;14.60;;;4.75;;
33098;SDS011;19465;49.016;11.414;2024-02-21T04:33:12;14.15;;;5.15;;
33098;SDS011;19465;49.016;11.414;2024-02-21T04:35:38;17.58;;;5.60;;
33098;SDS011;19465;49.016;11.414;2024-02-21T04:38:04;12.90;;;4.65;;
33098;SDS011;19465;49.016;11.414;2024-02-21T04:40:30;13.55;;;5.25;;
33098;SDS011;19465;49.016;11.414;2024-02-21T04:42:56;12.07;;;5.13;;
33098;SDS011;19465;49.016;11.414;2024-02-21T04:45:22;10.30;;;4.80;;
33098;SDS011;19465;49.016;11.414;2024-02-21T04:47:48;9.48;;;4.93;;
33098;SDS011;19465;49.016;11.414;2024-02-21T04:50:13;11.48;;;4.90;;
33098;SDS011;19465;49.016;11.414;2024-02-21T04:52:39;13.05;;;4.75;;
33098;SDS011;19465;49.016;11.414;2024-02-21T04:55:04;10.75;;;4.50;;
33098;SDS011;19465;49.016;11.414;2024-02-21T04:57:31;11.30;;;4.38;;
33098;SDS011;19465;49.016;11.414;2024-02-21T04:59:56;12.52;;;5.00;;
33098;SDS011;19465;49.016;11.414;2024-02-21T05:02:22;9.43;;;4.45;;
33098;SDS011;19465;49.016;11.414;2024-02-21T05:04:49;12.95;;;4.55;;
33098;SDS011;19465;49.016;11.414;2024-02-21T05:07:15;15.50;;;4.75;;
33098;SDS011;19465;49.016;11.414;2024-02-21T05:09:42;16.75;;;6.03;;
33098;SDS011;19465;49.016;11.414;2024-02-21T05:12:07;16.75;;;6.70;;
33098;SDS011;19465;49.016;11.414;2024-02-21T05:14:33;12.00;;;4.47;;
33098;SDS011;19465;49.016;11.414;2024-02-21T05:16:59;12.15;;;4.72;;
33098;SDS011;19465;49.016;11.414;2024-02-21T05:19:24;12.75;;;4.32;;
33098;SDS011;19465;49.016;11.414;2024-02-21T05:21:50;12.48;;;4.45;;
33098;SDS011;19465;49.016;11.414;2024-02-21T05:24:15;12.35;;;4.28;;
33098;SDS011;19465;49.016;11.414;2024-02-21T05:26:41;17.60;;;6.90;;
33098;SDS011;19465;49.016;11.414;2024-02-21T05:29:06;14.77;;;5.00;;
33098;SDS011;19465;49.016;11.414;2024-02-21T05:34:16;29.70;;;8.55;;
33098;SDS011;19465;49.016;11.414;2024-02-21T05:36:42;76.40;;;26.30;;
33098;SDS011;19465;49.016;11.414;2024-02-21T05:39:07;29.77;;;10.25;;
33098;SDS011;19465;49.016;11.414;2024-02-21T05:41:33;20.13;;;7.80;;
33098;SDS011;19465;49.016;11.414;2024-02-21T05:43:58;15.57;;;6.22;;
33098;SDS011;19465;49.016;11.414;2024-02-21T05:46:24;18.02;;;6.60;;
33098;SDS011;19465;49.016;11.414;2024-02-21T05:48:49;15.30;;;4.75;;
33098;SDS011;19465;49.016;11.414;2024-02-21T05:51:15;11.57;;;4.10;;
33098;SDS011;19465;49.016;11.414;2024-02-21T05:53:41;10.13;;;3.72;;
33098;SDS011;19465;49.016;11.414;2024-02-21T05:56:10;15.38;;;4.60;;
33098;SDS011;19465;49.016;11.414;2024-02-21T05:58:36;12.65;;;4.38;;
33098;SDS011;19465;49.016;11.414;2024-02-21T06:01:02;11.85;;;4.47;;
33098;SDS011;19465;49.016;11.414;2024-02-21T06:03:28;11.60;;;3.90;;
33098;SDS011;19465;49.016;11.414;2024-02-21T06:05:54;10.93;;;4.10;;
33098;SDS011;19465;49.016;11.414;2024-02-21T06:08:20;15.68;;;5.03;;
33098;SDS011;19465;49.016;11.414;2024-02-21T06:10:45;14.25;;;6.03;;
33098;SDS011;19465;49.016;11.414;2024-02-21T06:13:11;14.85;;;5.45;;
33098;SDS011;19465;49.016;11.414;2024-02-21T06:15:36;13.55;;;6.35;;
33098;SDS011;19465;49.016;11.414;2024-02-21T06:18:02;13.10;;;5.40;;
33098;SDS011;19465;49.016;11.414;2024-02-21T06:20:28;12.73;;;5.30;;
33098;SDS011;19465;49.016;11.414;2024-02-21T06:22:53;14.52;;;5.88;;
33098;SDS011;19465;49.016;11.414;2024-02-21T06:25:19;14.55;;;5.03;;
33098;SDS011;19465;49.016;11.414;2024-02-21T06:27:45;10.00;;;4.50;;
33098;SDS011;19465;49.016;11.414;2024-02-21T06:30:10;21.88;;;5.45;;
33098;SDS011;19465;49.016;11.414;2024-02-21T06:32:36;14.60;;;4.88;;
33098;SDS011;19465;49.016;11.414;2024-02-21T06:35:03;12.10;;;4.40;;
33098;SDS011;19465;49.016;11.414;2024-02-21T06:37:29;19.45;;;5.47;;
33098;SDS011;19465;49.016;11.414;2024-02-21T06:39:55;12.00;;;4.78;;
33098;SDS011;19465;49.016;11.414;2024-02-21T06:42:20;10.55;;;4.78;;
33098;SDS011;19465;49.016;11.414;2024-02-21T06:44:46;9.95;;;3.83;;
33098;SDS011;19465;49.016;11.414;2024-02-21T06:47:12;13.35;;;4.57;;
33098;SDS011;19465;49.016;11.414;2024-02-21T06:49:37;14.20;;;4.30;;
33098;SDS011;19465;49.016;11.414;2024-02-21T06:52:04;9.52;;;3.90;;
33098;SDS011;19465;49.016;11.414;2024-02-21T06:54:30;12.82;;;4.78;;
33098;SDS011;19465;49.016;11.414;2024-02-21T06:56:55;12.27;;;4.57;;
33098;SDS011;19465;49.016;11.414;2024-02-21T06:59:21;10.30;;;4.40;;
33098;SDS011;19465;49.016;11.414;2024-02-21T07:01:48;12.32;;;4.03;;
33098;SDS011;19465;49.016;11.414;2024-02-21T07:04:14;12.02;;;4.30;;
33098;SDS011;19465;49.016;11.414;2024-02-21T07:06:40;13.60;;;4.50;;
33098;SDS011;19465;49.016;11.414;2024-02-21T07:09:06;9.90;;;4.57;;
33098;SDS011;19465;49.016;11.414;2024-02-21T07:11:31;13.63;;;5.43;;
33098;SDS011;19465;49.016;11.414;2024-02-21T07:13:57;9.95;;;4.90;;
33098;SDS011;19465;49.016;11.414;2024-02-21T07:16:22;11.02;;;4.20;;
33098;SDS011;19465;49.016;11.414;2024-02-21T07:18:48;9.05;;;4.38;;
33098;SDS011;19465;49.016;11.414;2024-02-21T07:21:13;15.93;;;8.18;;
33098;SDS011;19465;49.016;11.414;2024-02-21T07:23:40;11.35;;;6.03;;
33098;SDS011;19465;49.016;11.414;2024-02-21T07:26:07;11.63;;;7.88;;
33098;SDS011;19465;49.016;11.414;2024-02-21T07:28:32;13.38;;;7.80;;
33098;SDS011;19465;49.016;11.414;2024-02-21T07:30:59;17.42;;;7.72;;
33098;SDS011;19465;49.016;11.414;2024-02-21T07:33:25;25.75;;;14.38;;
33098;SDS011;19465;49.016;11.414;2024-02-21T07:35:50;10.05;;;3.55;;
33098;SDS011;19465;49.016;11.414;2024-02-21T07:38:16;10.85;;;4.03;;
33098;SDS011;19465;49.016;11.414;2024-02-21T07:40:46;11.90;;;3.75;;
33098;SDS011;19465;49.016;11.414;2024-02-21T07:43:11;9.23;;;3.95;;
33098;SDS011;19465;49.016;11.414;2024-02-21T07:45:37;9.45;;;4.15;;
33098;SDS011;19465;49.016;11.414;2024-02-21T07:48:04;7.55;;;3.25;;
33098;SDS011;19465;49.016;11.414;2024-02-21T07:50:30;8.15;;;3.53;;
33098;SDS011;19465;49.016;11.414;2024-02-21T07:52:56;9.88;;;3.25;;
33098;SDS011;19465;49.016;11.414;2024-02-21T07:55:22;11.32;;;4.65;;
33098;SDS011;19465;49.016;11.414;2024-02-21T07:57:47;7.45;;;3.03;;
33098;SDS011;19465;49.016;11.414;2024-02-21T08:00:13;10.63;;;3.80;;
33098;SDS011;19465;49.016;11.414;2024-02-21T08:02:44;9.75;;;3.60;;
33098;SDS011;19465;49.016;11.414;2024-02-21T08:05:19;8.98;;;3.20;;
33098;SDS011;19465;49.016;11.414;2024-02-21T08:07:44;11.75;;;4.47;;
33098;SDS011;19465;49.016;11.414;2024-02-21T08:10:10;10.55;;;4.88;;
33098;SDS011;19465;49.016;11.414;2024-02-21T08:12:35;9.13;;;3.97;;
33098;SDS011;19465;49.016;11.414;2024-02-21T08:15:01;11.30;;;4.45;;
33098;SDS011;19465;49.016;11.414;2024-02-21T08:17:28;8.63;;;3.83;;
33098;SDS011;19465;49.016;11.414;2024-02-21T08:19:54;7.40;;;3.13;;
33098;SDS011;19465;49.016;11.414;2024-02-21T08:22:19;8.05;;;3.00;;
33098;SDS011;19465;49.016;11.414;2024-02-21T08:24:45;10.60;;;4.38;;
33098;SDS011;19465;49.016;11.414;2024-02-21T08:27:11;8.98;;;3.67;;
33098;SDS011;19465;49.016;11.414;2024-02-21T08:29:36;7.68;;;3.70;;
33098;SDS011;19465;49.016;11.414;2024-02-21T08:32:02;10.20;;;3.72;;
33098;SDS011;19465;49.016;11.414;2024-02-21T08:34:27;7.57;;;3.50;;
33098;SDS011;19465;49.016;11.414;2024-02-21T08:36:55;13.23;;;3.25;;
33098;SDS011;19465;49.016;11.414;2024-02-21T08:39:20;8.57;;;3.17;;
33098;SDS011;19465;49.016;11.414;2024-02-21T08:41:46;9.98;;;3.13;;
33098;SDS011;19465;49.016;11.414;2024-02-21T08:44:12;7.60;;;3.53;;
33098;SDS011;19465;49.016;11.414;2024-02-21T08:46:37;8.60;;;3.30;;
33098;SDS011;19465;49.016;11.414;2024-02-21T08:49:05;7.45;;;2.85;;
33098;SDS011;19465;49.016;11.414;2024-02-21T08:51:31;7.60;;;2.80;;
33098;SDS011;19465;49.016;11.414;2024-02-21T08:53:56;9.20;;;3.85;;
33098;SDS011;19465;49.016;11.414;2024-02-21T08:56:23;7.53;;;3.08;;
33098;SDS011;19465;49.016;11.414;2024-02-21T08:58:49;6.65;;;2.80;;
33098;SDS011;19465;49.016;11.414;2024-02-21T09:01:15;5.43;;;2.63;;
33098;SDS011;19465;49.016;11.414;2024-02-21T09:03:40;5.95;;;2.50;;
33098;SDS011;19465;49.016;11.414;2024-02-21T09:06:06;9.57;;;2.85;;
33098;SDS011;19465;49.016;11.414;2024-02-21T09:08:32;6.97;;;2.70;;
33098;SDS011;19465;49.016;11.414;2024-02-21T09:10:59;9.15;;;3.08;;
33098;SDS011;19465;49.016;11.414;2024-02-21T09:13:26;9.65;;;2.97;;
33098;SDS011;19465;49.016;11.414;2024-02-21T09:15:52;6.88;;;3.03;;
33098;SDS011;19465;49.016;11.414;2024-02-21T09:18:17;7.15;;;2.75;;
33098;SDS011;19465;49.016;11.414;2024-02-21T09:20:43;9.00;;;3.35;;
33098;SDS011;19465;49.016;11.414;2024-02-21T09:23:09;7.63;;;3.10;;
33098;SDS011;19465;49.016;11.414;2024-02-21T09:25:34;6.90;;;2.40;;
33098;SDS011;19465;49.016;11.414;2024-02-21T09:28:01;7.00;;;2.75;;
33098;SDS011;19465;49.016;11.414;2024-02-21T09:30:27;7.47;;;2.58;;
33098;SDS011;19465;49.016;11.414;2024-02-21T09:32:52;5.82;;;2.15;;
33098;SDS011;19465;49.016;11.414;2024-02-21T09:35:18;6.32;;;2.30;;
33098;SDS011;19465;49.016;11.414;2024-02-21T09:37:44;5.00;;;2.50;;
33098;SDS011;19465;49.016;11.414;2024-02-21T09:40:10;6.70;;;2.50;;
33098;SDS011;19465;49.016;11.414;2024-02-21T09:42:39;5.65;;;2.25;;
33098;SDS011;19465;49.016;11.414;2024-02-21T09:45:19;7.90;;;2.20;;
33098;SDS011;19465;49.016;11.414;2024-02-21T09:50:38;5.97;;;2.60;;
33098;SDS011;19465;49.016;11.414;2024-02-21T09:53:06;4.93;;;2.40;;
33098;SDS011;19465;49.016;11.414;2024-02-21T09:55:33;7.22;;;2.58;;
33098;SDS011;19465;49.016;11.414;2024-02-21T09:58:00;7.00;;;2.33;;
33098;SDS011;19465;49.016;11.414;2024-02-21T10:00:26;7.28;;;2.60;;
33098;SDS011;19465;49.016;11.414;2024-02-21T10:02:52;7.53;;;2.70;;
33098;SDS011;19465;49.016;11.414;2024-02-21T10:05:18;8.43;;;3.80;;
33098;SDS011;19465;49.016;11.414;2024-02-21T10:07:44;7.60;;;2.72;;
33098;SDS011;19465;49.016;11.414;2024-02-21T10:10:10;12.48;;;3.45;;
33098;SDS011;19465;49.016;11.414;2024-02-21T10:12:36;5.78;;;2.83;;
33098;SDS011;19465;49.016;11.414;2024-02-21T10:15:02;6.47;;;2.10;;
33098;SDS011;19465;49.016;11.414;2024-02-21T10:17:28;4.63;;;1.90;;
33098;SDS011;19465;49.016;11.414;2024-02-21T10:19:54;6.15;;;2.20;;
33098;SDS011;19465;49.016;11.414;2024-02-21T10:22:20;4.10;;;1.85;;
33098;SDS011;19465;49.016;11.414;2024-02-21T10:24:45;7.82;;;2.00;;
33098;SDS011;19465;49.016;11.414;2024-02-21T10:27:11;5.00;;;1.95;;
33098;SDS011;19465;49.016;11.414;2024-02-21T10:29:37;4.55;;;1.92;;
33098;SDS011;19465;49.016;11.414;2024-02-21T10:32:07;5.82;;;1.85;;
33098;SDS011;19465;49.016;11.414;2024-02-21T10:34:34;6.63;;;1.55;;
33098;SDS011;19465;49.016;11.414;2024-02-21T10:37:04;4.70;;;1.80;;
33098;SDS011;19465;49.016;11.414;2024-02-21T10:39:34;6.65;;;2.20;;
33098;SDS011;19465;49.016;11.414;2024-02-21T10:42:02;4.82;;;1.95;;
33098;SDS011;19465;49.016;11.414;2024-02-21T10:44:29;5.30;;;1.63;;
33098;SDS011;19465;49.016;11.414;2024-02-21T10:46:56;5.97;;;1.92;;
33098;SDS011;19465;49.016;11.414;2024-02-21T10:49:24;6.40;;;1.52;;
33098;SDS011;19465;49.016;11.414;2024-02-21T10:51:53;7.30;;;1.90;;
33098;SDS011;19465;49.016;11.414;2024-02-21T10:54:27;4.28;;;1.52;;
33098;SDS011;19465;49.016;11.414;2024-02-21T10:57:02;4.22;;;1.85;;
33098;SDS011;19465;49.016;11.414;2024-02-21T10:59:28;5.35;;;1.92;;
33098;SDS011;19465;49.016;11.414;2024-02-21T11:01:57;5.82;;;1.88;;
33098;SDS011;19465;49.016;11.414;2024-02-21T11:04:22;6.25;;;1.70;;
33098;SDS011;19465;49.016;11.414;2024-02-21T11:06:50;3.22;;;1.25;;
33098;SDS011;19465;49.016;11.414;2024-02-21T11:09:16;5.95;;;2.10;;
33098;SDS011;19465;49.016;11.414;2024-02-21T11:11:43;4.75;;;1.67;;
33098;SDS011;19465;49.016;11.414;2024-02-21T11:16:36;3.20;;;1.30;;
33098;SDS011;19465;49.016;11.414;2024-02-21T11:19:06;4.47;;;1.60;;
33098;SDS011;19465;49.016;11.414;2024-02-21T11:21:33;3.08;;;1.20;;
33098;SDS011;19465;49.016;11.414;2024-02-21T11:24:00;4.45;;;1.50;;
33098;SDS011;19465;49.016;11.414;2024-02-21T11:26:27;3.63;;;1.40;;
33098;SDS011;19465;49.016;11.414;2024-02-21T11:28:58;5.60;;;1.58;;
33098;SDS011;19465;49.016;11.414;2024-02-21T11:31:25;5.07;;;1.60;;
33098;SDS011;19465;49.016;11.414;2024-02-21T11:33:54;5.10;;;1.48;;
33098;SDS011;19465;49.016;11.414;2024-02-21T11:36:24;5.40;;;1.50;;
33098;SDS011;19465;49.016;11.414;2024-02-21T11:38:51;4.43;;;1.88;;
33098;SDS011;19465;49.016;11.414;2024-02-21T11:41:20;5.70;;;1.80;;
33098;SDS011;19465;49.016;11.414;2024-02-21T11:43:46;5.35;;;1.63;;
33098;SDS011;19465;49.016;11.414;2024-02-21T11:46:16;5.72;;;1.52;;
33098;SDS011;19465;49.016;11.414;2024-02-21T11:48:42;4.80;;;1.70;;
33098;SDS011;19465;49.016;11.414;2024-02-21T11:51:20;4.45;;;1.40;;
33098;SDS011;19465;49.016;11.414;2024-02-21T11:53:48;4.82;;;1.52;;
33098;SDS011;19465;49.016;11.414;2024-02-21T11:56:14;3.92;;;1.23;;
33098;SDS011;19465;49.016;11.414;2024-02-21T11:58:39;5.00;;;1.63;;
33098;SDS011;19465;49.016;11.414;2024-02-21T12:01:05;3.85;;;1.60;;
33098;SDS011;19465;49.016;11.414;2024-02-21T12:03:32;4.38;;;1.40;;
33098;SDS011;19465;49.016;11.414;2024-02-21T12:06:00;4.72;;;1.40;;
33098;SDS011;19465;49.016;11.414;2024-02-21T12:08:28;4.13;;;1.30;;
33098;SDS011;19465;49.016;11.414;2024-02-21T12:11:15;5.90;;;1.58;;
33098;SDS011;19465;49.016;11.414;2024-02-21T12:13:44;2.80;;;1.30;;
33098;SDS011;19465;49.016;11.414;2024-02-21T12:16:09;4.60;;;1.33;;
33098;SDS011;19465;49.016;11.414;2024-02-21T12:18:35;2.88;;;1.13;;
33098;SDS011;19465;49.016;11.414;2024-02-21T12:21:00;3.55;;;1.45;;
33098;SDS011;19465;49.016;11.414;2024-02-21T12:23:26;5.57;;;1.63;;
33098;SDS011;19465;49.016;11.414;2024-02-21T12:25:52;6.18;;;1.88;;
33098;SDS011;19465;49.016;11.414;2024-02-21T12:28:20;4.43;;;1.95;;
33098;SDS011;19465;49.016;11.414;2024-02-21T12:30:47;4.85;;;3.33;;
33098;SDS011;19465;49.016;11.414;2024-02-21T12:33:12;4.57;;;1.60;;
33098;SDS011;19465;49.016;11.414;2024-02-21T12:35:39;3.30;;;1.30;;
33098;SDS011;19465;49.016;11.414;2024-02-21T12:38:05;3.55;;;1.65;;
33098;SDS011;19465;49.016;11.414;2024-02-21T12:40:30;3.90;;;1.70;;
33098;SDS011;19465;49.016;11.414;2024-02-21T12:42:58;3.55;;;1.30;;
33098;SDS011;19465;49.016;11.414;2024-02-21T12:45:28;3.35;;;1.45;;
33098;SDS011;19465;49.016;11.414;2024-02-21T12:47:53;3.75;;;1.40;;
33098;SDS011;19465;49.016;11.414;2024-02-21T12:50:19;3.92;;;1.20;;
33098;SDS011;19465;49.016;11.414;2024-02-21T12:52:45;4.13;;;1.70;;
33098;SDS011;19465;49.016;11.414;2024-02-21T12:55:11;2.97;;;1.02;;
33098;SDS011;19465;49.016;11.414;2024-02-21T12:57:38;3.60;;;1.00;;
33098;SDS011;19465;49.016;11.414;2024-02-21T13:00:05;3.60;;;1.20;;
33098;SDS011;19465;49.016;11.414;2024-02-21T13:02:33;4.63;;;1.27;;
33098;SDS011;19465;49.016;11.414;2024-02-21T13:04:59;4.28;;;1.20;;
33098;SDS011;19465;49.016;11.414;2024-02-21T13:07:27;2.85;;;1.08;;
33098;SDS011;19465;49.016;11.414;2024-02-21T13:09:53;4.45;;;1.20;;
33098;SDS011;19465;49.016;11.414;2024-02-21T13:12:19;2.33;;;0.85;;
33098;SDS011;19465;49.016;11.414;2024-02-21T13:14:44;2.88;;;1.33;;
33098;SDS011;19465;49.016;11.414;2024-02-21T13:17:10;3.55;;;1.00;;
33098;SDS011;19465;49.016;11.414;2024-02-21T13:19:35;5.00;;;1.50;;
33098;SDS011;19465;49.016;11.414;2024-02-21T13:22:01;3.17;;;1.20;;
33098;SDS011;19465;49.016;11.414;2024-02-21T13:24:27;5.57;;;3.88;;
33098;SDS011;19465;49.016;11.414;2024-02-21T13:26:53;5.22;;;2.55;;
33098;SDS011;19465;49.016;11.414;2024-02-21T13:29:18;6.75;;;3.75;;
33098;SDS011;19465;49.016;11.414;2024-02-21T13:31:45;5.70;;;2.10;;
33098;SDS011;19465;49.016;11.414;2024-02-21T13:34:11;3.25;;;1.30;;
33098;SDS011;19465;49.016;11.414;2024-02-21T13:36:36;3.03;;;1.13;;
33098;SDS011;19465;49.016;11.414;2024-02-21T13:39:02;4.40;;;1.40;;
33098;SDS011;19465;49.016;11.414;2024-02-21T13:41:30;2.78;;;1.10;;
33098;SDS011;19465;49.016;11.414;2024-02-21T13:43:56;3.63;;;1.08;;
33098;SDS011;19465;49.016;11.414;2024-02-21T13:46:21;1.65;;;0.80;;
33098;SDS011;19465;49.016;11.414;2024-02-21T13:48:47;4.10;;;0.95;;
33098;SDS011;19465;49.016;11.414;2024-02-21T13:51:12;2.78;;;1.08;;
33098;SDS011;19465;49.016;11.414;2024-02-21T13:53:38;2.65;;;1.02;;
33098;SDS011;19465;49.016;11.414;2024-02-21T13:56:03;2.22;;;1.05;;
33098;SDS011;19465;49.016;11.414;2024-02-21T13:58:29;2.30;;;1.10;;
33098;SDS011;19465;49.016;11.414;2024-02-21T14:00:55;3.20;;;1.20;;
33098;SDS011;19465;49.016;11.414;2024-02-21T14:03:21;2.88;;;0.98;;
33098;SDS011;19465;49.016;11.414;2024-02-21T14:05:47;3.17;;;0.88;;
33098;SDS011;19465;49.016;11.414;2024-02-21T14:08:13;3.50;;;1.70;;
33098;SDS011;19465;49.016;11.414;2024-02-21T14:10:39;2.40;;;1.00;;
33098;SDS011;19465;49.016;11.414;2024-02-21T14:13:05;2.88;;;0.80;;
33098;SDS011;19465;49.016;11.414;2024-02-21T14:15:30;3.45;;;0.90;;
33098;SDS011;19465;49.016;11.414;2024-02-21T14:17:56;2.58;;;1.00;;
33098;SDS011;19465;49.016;11.414;2024-02-21T14:20:22;2.17;;;0.90;;
33098;SDS011;19465;49.016;11.414;2024-02-21T14:22:47;3.88;;;1.27;;
33098;SDS011;19465;49.016;11.414;2024-02-21T14:25:13;2.95;;;1.13;;
33098;SDS011;19465;49.016;11.414;2024-02-21T14:27:40;4.45;;;1.20;;
33098;SDS011;19465;49.016;11.414;2024-02-21T14:30:06;2.95;;;1.20;;